sensor_id;sensor_type;location;lat;lon;timestamp;pressure;altitude;pressure_sealevel;temperature;humidity
23172;BME280;11754;42.664;23.594;2023-02-15T00:01:13;96623.47;;;1.24;67.67
23172;BME280;11754;42.664;23.594;2023-02-15T00:03:39;96627.81;;;1.23;67.71
23172;BME280;11754;42.664;23.594;2023-02-15T00:06:05;96615.97;;;1.17;67.88
23172;BME280;11754;42.664;23.594;2023-02-15T00:08:31;96617.75;;;1.17;68.03
23172;BME280;11754;42.664;23.594;2023-02-15T00:11:23;96630.47;;;1.22;68.04
23172;BME280;11754;42.664;23.594;2023-02-15T00:14:15;96626.22;;;1.20;67.98
23172;BME280;11754;42.664;23.594;2023-02-15T00:16:42;96636.03;;;1.15;68.17
23172;BME280;11754;42.664;23.594;2023-02-15T00:19:09;96648.09;;;1.16;67.98
23172;BME280;11754;42.664;23.594;2023-02-15T00:21:36;96639.53;;;1.14;68.16
23172;BME280;11754;42.664;23.594;2023-02-15T00:24:04;96632.06;;;1.08;68.21
23172;BME280;11754;42.664;23.594;2023-02-15T00:26:30;96651.09;;;1.09;68.24
23172;BME280;11754;42.664;23.594;2023-02-15T00:28:56;96642.53;;;1.07;68.28
23172;BME280;11754;42.664;23.594;2023-02-15T00:31:26;96635.56;;;1.07;68.27
23172;BME280;11754;42.664;23.594;2023-02-15T00:33:51;96650.25;;;1.08;68.02
23172;BME280;11754;42.664;23.594;2023-02-15T00:36:16;96636.66;;;1.03;68.20
23172;BME280;11754;42.664;23.594;2023-02-15T00:38:42;96640.31;;;0.99;68.21
23172;BME280;11754;42.664;23.594;2023-02-15T00:41:08;96633.63;;;0.95;68.01
23172;BME280;11754;42.664;23.594;2023-02-15T00:43:34;96645.69;;;0.96;68.53
23172;BME280;11754;42.664;23.594;2023-02-15T00:46:01;96647.53;;;0.94;68.62
23172;BME280;11754;42.664;23.594;2023-02-15T00:48:27;96646.75;;;0.92;68.83
23172;BME280;11754;42.664;23.594;2023-02-15T00:50:54;96632.41;;;0.85;68.86
23172;BME280;11754;42.664;23.594;2023-02-15T00:53:20;96630.56;;;0.87;68.78
23172;BME280;11754;42.664;23.594;2023-02-15T00:55:47;96640.34;;;0.82;68.81
23172;BME280;11754;42.664;23.594;2023-02-15T00:58:13;96635.38;;;0.77;69.20
23172;BME280;11754;42.664;23.594;2023-02-15T01:00:40;96634.56;;;0.77;69.43
23172;BME280;11754;42.664;23.594;2023-02-15T01:03:06;96630.25;;;0.76;69.60
23172;BME280;11754;42.664;23.594;2023-02-15T01:05:31;96620.22;;;0.69;69.26
23172;BME280;11754;42.664;23.594;2023-02-15T01:07:58;96635.69;;;0.71;69.44
23172;BME280;11754;42.664;23.594;2023-02-15T01:10:24;96631.47;;;0.68;69.40
23172;BME280;11754;42.664;23.594;2023-02-15T01:12:51;96631.66;;;0.65;69.25
23172;BME280;11754;42.664;23.594;2023-02-15T01:15:16;96619.66;;;0.63;69.17
23172;BME280;11754;42.664;23.594;2023-02-15T01:17:42;96619.72;;;0.61;69.01
23172;BME280;11754;42.664;23.594;2023-02-15T01:20:09;96619.97;;;0.57;69.08
23172;BME280;11754;42.664;23.594;2023-02-15T01:22:35;96618.53;;;0.51;69.73
23172;BME280;11754;42.664;23.594;2023-02-15T01:25:00;96621.72;;;0.56;69.48
23172;BME280;11754;42.664;23.594;2023-02-15T01:27:25;96620.81;;;0.57;69.55
23172;BME280;11754;42.664;23.594;2023-02-15T01:29:51;96618.06;;;0.60;69.58
23172;BME280;11754;42.664;23.594;2023-02-15T01:32:16;96610.59;;;0.54;69.29
23172;BME280;11754;42.664;23.594;2023-02-15T01:34:41;96616.53;;;0.56;69.33
23172;BME280;11754;42.664;23.594;2023-02-15T01:37:07;96625.16;;;0.57;69.75
23172;BME280;11754;42.664;23.594;2023-02-15T01:39:32;96616.38;;;0.59;69.57
23172;BME280;11754;42.664;23.594;2023-02-15T01:41:58;96616.38;;;0.59;69.96
23172;BME280;11754;42.664;23.594;2023-02-15T01:47:26;96610.41;;;0.57;69.84
23172;BME280;11754;42.664;23.594;2023-02-15T01:50:25;96607.81;;;0.57;70.27
23172;BME280;11754;42.664;23.594;2023-02-15T01:53:22;96616.69;;;0.53;70.51
23172;BME280;11754;42.664;23.594;2023-02-15T01:56:02;96611.34;;;0.56;70.84
23172;BME280;11754;42.664;23.594;2023-02-15T01:58:30;96608.84;;;0.55;71.03
23172;BME280;11754;42.664;23.594;2023-02-15T02:00:59;96613.34;;;0.51;71.09
23172;BME280;11754;42.664;23.594;2023-02-15T02:03:38;96615.78;;;0.54;71.24
23172;BME280;11754;42.664;23.594;2023-02-15T02:06:06;96608.75;;;0.56;71.20
23172;BME280;11754;42.664;23.594;2023-02-15T02:08:32;96603.66;;;0.55;71.26
23172;BME280;11754;42.664;23.594;2023-02-15T02:10:57;96609.69;;;0.55;71.56
23172;BME280;11754;42.664;23.594;2023-02-15T02:13:23;96611.50;;;0.53;71.70
23172;BME280;11754;42.664;23.594;2023-02-15T02:16:01;96610.59;;;0.54;71.66
23172;BME280;11754;42.664;23.594;2023-02-15T02:24:18;96622.72;;;0.54;71.79
23172;BME280;11754;42.664;23.594;2023-02-15T02:39:55;96618.53;;;0.51;72.16
23172;BME280;11754;42.664;23.594;2023-02-15T02:42:35;96614.25;;;0.50;72.51
23172;BME280;11754;42.664;23.594;2023-02-15T02:45:18;96605.72;;;0.48;72.36
23172;BME280;11754;42.664;23.594;2023-02-15T02:47:49;96615.00;;;0.52;72.70
23172;BME280;11754;42.664;23.594;2023-02-15T02:50:21;96618.38;;;0.54;72.44
23172;BME280;11754;42.664;23.594;2023-02-15T02:52:50;96623.59;;;0.54;72.62
23172;BME280;11754;42.664;23.594;2023-02-15T02:55:32;96623.72;;;0.51;72.67
23172;BME280;11754;42.664;23.594;2023-02-15T03:00:37;96632.13;;;0.56;72.59
23172;BME280;11754;42.664;23.594;2023-02-15T03:03:10;96627.06;;;0.53;72.46
23172;BME280;11754;42.664;23.594;2023-02-15T03:05:41;96630.44;;;0.55;72.85
23172;BME280;11754;42.664;23.594;2023-02-15T03:08:08;96624.47;;;0.53;72.63
23172;BME280;11754;42.664;23.594;2023-02-15T03:10:37;96624.47;;;0.53;72.68
23172;BME280;11754;42.664;23.594;2023-02-15T03:13:03;96642.50;;;0.56;72.60
23172;BME280;11754;42.664;23.594;2023-02-15T03:15:33;96645.19;;;0.55;72.88
23172;BME280;11754;42.664;23.594;2023-02-15T03:18:20;96649.38;;;0.57;72.87
23172;BME280;11754;42.664;23.594;2023-02-15T03:20:47;96649.38;;;0.57;72.95
23172;BME280;11754;42.664;23.594;2023-02-15T03:23:17;96641.91;;;0.51;72.59
23172;BME280;11754;42.664;23.594;2023-02-15T03:25:58;96648.00;;;0.50;73.25
23172;BME280;11754;42.664;23.594;2023-02-15T03:28:41;96648.84;;;0.51;72.89
23172;BME280;11754;42.664;23.594;2023-02-15T03:31:08;96643.28;;;0.41;72.90
23172;BME280;11754;42.664;23.594;2023-02-15T03:33:38;96641.94;;;0.32;72.51
23172;BME280;11754;42.664;23.594;2023-02-15T03:36:21;96641.78;;;0.18;71.79
23172;BME280;11754;42.664;23.594;2023-02-15T03:44:27;96650.13;;;-0.12;72.06
23172;BME280;11754;42.664;23.594;2023-02-15T03:47:00;96649.72;;;-0.21;72.66
23172;BME280;11754;42.664;23.594;2023-02-15T03:49:36;96654.28;;;-0.27;73.14
23172;BME280;11754;42.664;23.594;2023-02-15T03:52:04;96659.72;;;-0.33;73.32
23172;BME280;11754;42.664;23.594;2023-02-15T03:54:32;96649.00;;;-0.44;74.15
23172;BME280;11754;42.664;23.594;2023-02-15T03:57:12;96664.72;;;-0.47;73.94
23172;BME280;11754;42.664;23.594;2023-02-15T03:59:58;96660.31;;;-0.45;74.23
23172;BME280;11754;42.664;23.594;2023-02-15T04:03:06;96667.69;;;-0.36;73.72
23172;BME280;11754;42.664;23.594;2023-02-15T04:05:32;96672.88;;;-0.36;73.51
23172;BME280;11754;42.664;23.594;2023-02-15T04:07:58;96670.41;;;-0.39;73.54
23172;BME280;11754;42.664;23.594;2023-02-15T04:10:23;96666.06;;;-0.38;74.31
23172;BME280;11754;42.664;23.594;2023-02-15T04:13:07;96666.09;;;-0.40;74.34
23172;BME280;11754;42.664;23.594;2023-02-15T04:15:32;96673.00;;;-0.39;74.12
23172;BME280;11754;42.664;23.594;2023-02-15T04:18:16;96679.84;;;-0.38;74.89
23172;BME280;11754;42.664;23.594;2023-02-15T04:20:45;96684.91;;;-0.35;74.22
23172;BME280;11754;42.664;23.594;2023-02-15T04:23:29;96684.13;;;-0.37;73.56
23172;BME280;11754;42.664;23.594;2023-02-15T04:26:13;96692.72;;;-0.36;73.50
23172;BME280;11754;42.664;23.594;2023-02-15T04:28:39;96691.72;;;-0.32;73.27
23172;BME280;11754;42.664;23.594;2023-02-15T04:31:04;96693.38;;;-0.31;73.16
23172;BME280;11754;42.664;23.594;2023-02-15T04:33:29;96700.25;;;-0.30;73.38
23172;BME280;11754;42.664;23.594;2023-02-15T04:35:55;96698.56;;;-0.31;73.69
23172;BME280;11754;42.664;23.594;2023-02-15T04:38:21;96698.34;;;-0.27;73.50
23172;BME280;11754;42.664;23.594;2023-02-15T04:40:51;96693.16;;;-0.27;74.35
23172;BME280;11754;42.664;23.594;2023-02-15T04:43:18;96703.41;;;-0.23;73.84
23172;BME280;11754;42.664;23.594;2023-02-15T04:45:50;96697.38;;;-0.24;73.78
23172;BME280;11754;42.664;23.594;2023-02-15T04:48:17;96699.00;;;-0.21;73.74
23172;BME280;11754;42.664;23.594;2023-02-15T04:50:43;96701.41;;;-0.18;73.51
23172;BME280;11754;42.664;23.594;2023-02-15T04:53:08;96699.84;;;-0.21;73.08
23172;BME280;11754;42.664;23.594;2023-02-15T04:55:34;96707.38;;;-0.16;72.76
23172;BME280;11754;42.664;23.594;2023-02-15T04:57:59;96710.91;;;-0.17;72.66
23172;BME280;11754;42.664;23.594;2023-02-15T05:00:25;96713.38;;;-0.14;72.50
23172;BME280;11754;42.664;23.594;2023-02-15T05:02:50;96708.19;;;-0.14;72.53
23172;BME280;11754;42.664;23.594;2023-02-15T05:05:16;96711.53;;;-0.12;72.28
23172;BME280;11754;42.664;23.594;2023-02-15T05:07:42;96709.00;;;-0.14;72.00
23172;BME280;11754;42.664;23.594;2023-02-15T05:10:08;96703.75;;;-0.12;72.02
23172;BME280;11754;42.664;23.594;2023-02-15T05:12:33;96714.06;;;-0.11;71.79
23172;BME280;11754;42.664;23.594;2023-02-15T05:14:58;96718.25;;;-0.08;71.68
23172;BME280;11754;42.664;23.594;2023-02-15T05:17:24;96716.72;;;-0.12;71.63
23172;BME280;11754;42.664;23.594;2023-02-15T05:19:49;96718.25;;;-0.08;71.84
23172;BME280;11754;42.664;23.594;2023-02-15T05:22:15;96717.63;;;-0.13;71.80
23172;BME280;11754;42.664;23.594;2023-02-15T05:24:40;96725.28;;;-0.10;72.26
23172;BME280;11754;42.664;23.594;2023-02-15T05:27:31;96727.09;;;-0.12;72.64
23172;BME280;11754;42.664;23.594;2023-02-15T05:30:15;96730.72;;;-0.16;72.83
23172;BME280;11754;42.664;23.594;2023-02-15T05:32:41;96734.88;;;-0.12;72.77
23172;BME280;11754;42.664;23.594;2023-02-15T05:35:06;96733.81;;;-0.08;72.37
23172;BME280;11754;42.664;23.594;2023-02-15T05:37:33;96729.47;;;-0.08;72.55
23172;BME280;11754;42.664;23.594;2023-02-15T05:39:58;96728.75;;;-0.11;71.59
23172;BME280;11754;42.664;23.594;2023-02-15T05:42:24;96741.41;;;-0.04;71.25
23172;BME280;11754;42.664;23.594;2023-02-15T05:44:49;96744.63;;;0.02;70.97
23172;BME280;11754;42.664;23.594;2023-02-15T05:47:14;96741.94;;;0.03;70.96
23172;BME280;11754;42.664;23.594;2023-02-15T05:49:40;96748.66;;;0.07;70.76
23172;BME280;11754;42.664;23.594;2023-02-15T05:52:05;96752.88;;;0.10;70.40
23172;BME280;11754;42.664;23.594;2023-02-15T05:54:31;96753.53;;;0.15;69.96
23172;BME280;11754;42.664;23.594;2023-02-15T05:56:56;96756.63;;;0.21;70.09
23172;BME280;11754;42.664;23.594;2023-02-15T05:59:21;96759.75;;;0.30;70.41
23172;BME280;11754;42.664;23.594;2023-02-15T06:01:47;96747.09;;;0.41;69.56
23172;BME280;11754;42.664;23.594;2023-02-15T06:04:12;96756.69;;;0.39;69.57
23172;BME280;11754;42.664;23.594;2023-02-15T06:06:38;96755.13;;;0.54;68.58
23172;BME280;11754;42.664;23.594;2023-02-15T06:09:03;96752.31;;;0.58;67.81
23172;BME280;11754;42.664;23.594;2023-02-15T06:11:29;96748.91;;;0.39;68.18
23172;BME280;11754;42.664;23.594;2023-02-15T06:13:54;96755.63;;;0.43;68.73
23172;BME280;11754;42.664;23.594;2023-02-15T06:16:19;96759.47;;;0.53;68.76
23172;BME280;11754;42.664;23.594;2023-02-15T06:18:45;96764.41;;;0.77;68.49
23172;BME280;11754;42.664;23.594;2023-02-15T06:21:10;96766.09;;;0.78;68.55
23172;BME280;11754;42.664;23.594;2023-02-15T06:23:35;96763.25;;;0.82;69.09
23172;BME280;11754;42.664;23.594;2023-02-15T06:26:01;96759.41;;;1.08;69.06
23172;BME280;11754;42.664;23.594;2023-02-15T06:28:26;96767.63;;;1.16;68.93
23172;BME280;11754;42.664;23.594;2023-02-15T06:30:52;96761.97;;;1.26;68.81
23172;BME280;11754;42.664;23.594;2023-02-15T06:33:17;96757.06;;;1.37;68.70
23172;BME280;11754;42.664;23.594;2023-02-15T06:35:43;96759.03;;;1.49;68.73
23172;BME280;11754;42.664;23.594;2023-02-15T06:38:09;96759.16;;;1.63;68.53
23172;BME280;11754;42.664;23.594;2023-02-15T06:40:34;96758.63;;;1.90;68.40
23172;BME280;11754;42.664;23.594;2023-02-15T06:43:00;96754.69;;;2.14;67.91
23172;BME280;11754;42.664;23.594;2023-02-15T06:45:25;96746.72;;;2.33;67.35
23172;BME280;11754;42.664;23.594;2023-02-15T06:47:51;96755.75;;;2.74;66.35
23172;BME280;11754;42.664;23.594;2023-02-15T06:50:16;96752.09;;;2.92;65.65
23172;BME280;11754;42.664;23.594;2023-02-15T06:52:41;96743.19;;;2.96;65.04
23172;BME280;11754;42.664;23.594;2023-02-15T06:55:10;96743.16;;;3.26;65.27
23172;BME280;11754;42.664;23.594;2023-02-15T06:57:35;96742.72;;;3.48;64.58
23172;BME280;11754;42.664;23.594;2023-02-15T07:00:02;96746.28;;;3.76;63.59
23172;BME280;11754;42.664;23.594;2023-02-15T07:02:29;96757.44;;;4.06;63.12
23172;BME280;11754;42.664;23.594;2023-02-15T07:04:56;96748.91;;;4.31;62.55
23172;BME280;11754;42.664;23.594;2023-02-15T07:07:22;96748.47;;;4.66;62.10
23172;BME280;11754;42.664;23.594;2023-02-15T07:09:48;96749.81;;;4.99;60.98
23172;BME280;11754;42.664;23.594;2023-02-15T07:12:13;96757.59;;;5.26;60.71
23172;BME280;11754;42.664;23.594;2023-02-15T07:14:57;96744.25;;;5.56;59.91
23172;BME280;11754;42.664;23.594;2023-02-15T07:17:23;96746.31;;;5.76;59.43
23172;BME280;11754;42.664;23.594;2023-02-15T07:19:48;96745.28;;;6.05;59.06
23172;BME280;11754;42.664;23.594;2023-02-15T07:22:14;96757.69;;;6.39;58.50
23172;BME280;11754;42.664;23.594;2023-02-15T07:24:39;96736.63;;;6.65;57.33
23172;BME280;11754;42.664;23.594;2023-02-15T07:27:06;96735.56;;;6.43;57.27
23172;BME280;11754;42.664;23.594;2023-02-15T07:29:32;96739.72;;;6.22;57.35
23172;BME280;11754;42.664;23.594;2023-02-15T07:31:57;96746.31;;;6.15;57.56
23172;BME280;11754;42.664;23.594;2023-02-15T07:34:22;96744.25;;;5.94;57.89
23172;BME280;11754;42.664;23.594;2023-02-15T07:36:50;96746.94;;;6.18;57.63
23172;BME280;11754;42.664;23.594;2023-02-15T07:39:15;96731.63;;;6.25;56.98
23172;BME280;11754;42.664;23.594;2023-02-15T07:41:41;96738.41;;;6.40;57.20
23172;BME280;11754;42.664;23.594;2023-02-15T07:44:11;96743.06;;;6.61;57.56
23172;BME280;11754;42.664;23.594;2023-02-15T07:46:37;96730.53;;;6.88;58.01
23172;BME280;11754;42.664;23.594;2023-02-15T07:49:02;96730.88;;;7.43;57.38
23172;BME280;11754;42.664;23.594;2023-02-15T07:51:28;96740.56;;;7.65;55.88
23172;BME280;11754;42.664;23.594;2023-02-15T07:53:54;96741.72;;;7.50;56.04
23172;BME280;11754;42.664;23.594;2023-02-15T07:56:20;96747.66;;;7.40;54.47
23172;BME280;11754;42.664;23.594;2023-02-15T07:58:45;96734.13;;;7.91;54.56
23172;BME280;11754;42.664;23.594;2023-02-15T08:01:30;96734.72;;;8.51;52.51
23172;BME280;11754;42.664;23.594;2023-02-15T08:03:56;96731.41;;;8.81;50.47
23172;BME280;11754;42.664;23.594;2023-02-15T08:06:25;96730.28;;;8.63;49.94
23172;BME280;11754;42.664;23.594;2023-02-15T08:08:50;96727.72;;;9.05;49.64
23172;BME280;11754;42.664;23.594;2023-02-15T08:11:23;96736.81;;;9.54;48.43
23172;BME280;11754;42.664;23.594;2023-02-15T08:14:10;96730.34;;;10.19;46.48
23172;BME280;11754;42.664;23.594;2023-02-15T08:16:38;96725.53;;;10.74;45.07
23172;BME280;11754;42.664;23.594;2023-02-15T08:19:05;96720.94;;;10.76;45.27
23172;BME280;11754;42.664;23.594;2023-02-15T08:21:31;96721.66;;;10.78;43.87
23172;BME280;11754;42.664;23.594;2023-02-15T08:23:57;96708.47;;;11.17;42.74
23172;BME280;11754;42.664;23.594;2023-02-15T08:26:24;96724.13;;;10.70;43.01
23172;BME280;11754;42.664;23.594;2023-02-15T08:28:50;96721.66;;;10.98;42.78
23172;BME280;11754;42.664;23.594;2023-02-15T08:31:16;96718.72;;;11.49;41.86
23172;BME280;11754;42.664;23.594;2023-02-15T08:33:46;96718.31;;;11.25;41.89
23172;BME280;11754;42.664;23.594;2023-02-15T08:36:15;96713.31;;;11.41;41.74
23172;BME280;11754;42.664;23.594;2023-02-15T08:38:41;96723.84;;;10.54;41.79
23172;BME280;11754;42.664;23.594;2023-02-15T08:41:21;96710.81;;;10.72;42.43
23172;BME280;11754;42.664;23.594;2023-02-15T08:43:48;96723.16;;;11.49;41.17
23172;BME280;11754;42.664;23.594;2023-02-15T08:46:15;96723.66;;;11.82;39.94
23172;BME280;11754;42.664;23.594;2023-02-15T08:48:41;96725.31;;;12.30;39.04
23172;BME280;11754;42.664;23.594;2023-02-15T08:51:24;96719.69;;;11.48;39.63
23172;BME280;11754;42.664;23.594;2023-02-15T08:53:54;96719.16;;;10.87;41.47
23172;BME280;11754;42.664;23.594;2023-02-15T08:56:23;96706.81;;;11.83;40.58
23172;BME280;11754;42.664;23.594;2023-02-15T08:58:50;96717.59;;;12.73;38.01
23172;BME280;11754;42.664;23.594;2023-02-15T09:01:18;96714.00;;;13.28;36.70
23172;BME280;11754;42.664;23.594;2023-02-15T09:03:46;96720.44;;;12.98;37.45
23172;BME280;11754;42.664;23.594;2023-02-15T09:06:12;96710.09;;;13.05;37.13
23172;BME280;11754;42.664;23.594;2023-02-15T09:08:37;96710.94;;;12.42;37.11
23172;BME280;11754;42.664;23.594;2023-02-15T09:11:10;96713.34;;;12.81;37.52
23172;BME280;11754;42.664;23.594;2023-02-15T09:13:37;96709.25;;;13.04;36.35
23172;BME280;11754;42.664;23.594;2023-02-15T09:16:05;96705.88;;;13.30;36.54
23172;BME280;11754;42.664;23.594;2023-02-15T09:18:34;96705.09;;;13.02;36.28
23172;BME280;11754;42.664;23.594;2023-02-15T09:21:09;96703.16;;;14.60;33.88
23172;BME280;11754;42.664;23.594;2023-02-15T09:23:35;96704.25;;;16.53;31.14
23172;BME280;11754;42.664;23.594;2023-02-15T09:26:08;96698.22;;;17.22;29.48
23172;BME280;11754;42.664;23.594;2023-02-15T09:28:34;96696.19;;;16.70;29.86
23172;BME280;11754;42.664;23.594;2023-02-15T09:33:33;96701.94;;;18.56;27.94
23172;BME280;11754;42.664;23.594;2023-02-15T09:35:59;96688.50;;;19.00;27.00
23172;BME280;11754;42.664;23.594;2023-02-15T09:38:24;96696.03;;;17.63;28.46
23172;BME280;11754;42.664;23.594;2023-02-15T09:40:58;96693.88;;;18.85;27.53
23172;BME280;11754;42.664;23.594;2023-02-15T09:43:38;96689.66;;;22.73;22.84
23172;BME280;11754;42.664;23.594;2023-02-15T10:16:45;96651.06;;;29.76;15.96
23172;BME280;11754;42.664;23.594;2023-02-15T10:22:34;96628.47;;;31.69;14.27
23172;BME280;11754;42.664;23.594;2023-02-15T10:28:06;96632.69;;;29.34;14.98
23172;BME280;11754;42.664;23.594;2023-02-15T10:31:14;96626.28;;;31.41;14.12
23172;BME280;11754;42.664;23.594;2023-02-15T10:33:43;96615.88;;;32.19;13.12
23172;BME280;11754;42.664;23.594;2023-02-15T10:36:31;96613.72;;;33.41;12.30
23172;BME280;11754;42.664;23.594;2023-02-15T10:39:28;96618.16;;;34.05;12.25
23172;BME280;11754;42.664;23.594;2023-02-15T10:53:15;96594.53;;;33.46;12.61
23172;BME280;11754;42.664;23.594;2023-02-15T10:55:56;96588.56;;;36.06;11.04
23172;BME280;11754;42.664;23.594;2023-02-15T10:58:44;96599.44;;;33.54;11.94
23172;BME280;11754;42.664;23.594;2023-02-15T11:01:20;96596.28;;;31.35;13.01
23172;BME280;11754;42.664;23.594;2023-02-15T11:06:50;96599.91;;;28.65;15.16
23172;BME280;11754;42.664;23.594;2023-02-15T11:09:19;96601.63;;;29.89;14.50
23172;BME280;11754;42.664;23.594;2023-02-15T11:11:51;96593.03;;;31.64;13.05
23172;BME280;11754;42.664;23.594;2023-02-15T11:14:27;96598.13;;;33.07;12.39
23172;BME280;11754;42.664;23.594;2023-02-15T11:17:04;96592.06;;;29.82;14.16
23172;BME280;11754;42.664;23.594;2023-02-15T11:19:34;96598.66;;;29.27;14.54
23172;BME280;11754;42.664;23.594;2023-02-15T11:22:03;96598.31;;;28.69;14.89
23172;BME280;11754;42.664;23.594;2023-02-15T11:24:36;96594.63;;;28.80;14.77
23172;BME280;11754;42.664;23.594;2023-02-15T11:27:25;96586.69;;;27.57;15.51
23172;BME280;11754;42.664;23.594;2023-02-15T11:30:13;96584.72;;;27.69;15.96
23172;BME280;11754;42.664;23.594;2023-02-15T11:32:40;96585.88;;;31.02;13.99
23172;BME280;11754;42.664;23.594;2023-02-15T11:40:20;96564.34;;;28.66;14.96
23172;BME280;11754;42.664;23.594;2023-02-15T11:42:47;96573.59;;;31.04;13.98
23172;BME280;11754;42.664;23.594;2023-02-15T11:45:32;96567.38;;;31.86;12.95
23172;BME280;11754;42.664;23.594;2023-02-15T11:48:00;96575.53;;;32.01;13.02
23172;BME280;11754;42.664;23.594;2023-02-15T11:50:32;96564.22;;;32.38;12.71
23172;BME280;11754;42.664;23.594;2023-02-15T11:53:18;96576.66;;;31.64;12.72
23172;BME280;11754;42.664;23.594;2023-02-15T11:55:48;96562.19;;;31.28;13.31
23172;BME280;11754;42.664;23.594;2023-02-15T11:58:28;96561.16;;;34.60;11.20
23172;BME280;11754;42.664;23.594;2023-02-15T12:01:00;96560.03;;;31.45;12.82
23172;BME280;11754;42.664;23.594;2023-02-15T12:03:47;96561.63;;;31.82;12.78
23172;BME280;11754;42.664;23.594;2023-02-15T12:06:44;96570.28;;;30.87;13.61
23172;BME280;11754;42.664;23.594;2023-02-15T12:09:33;96556.72;;;29.50;14.08
23172;BME280;11754;42.664;23.594;2023-02-15T12:14:52;96541.31;;;32.99;12.48
23172;BME280;11754;42.664;23.594;2023-02-15T12:17:20;96535.44;;;35.97;10.50
23172;BME280;11754;42.664;23.594;2023-02-15T12:19:46;96526.72;;;31.94;12.68
23172;BME280;11754;42.664;23.594;2023-02-15T12:22:36;96530.28;;;34.74;11.28
23172;BME280;11754;42.664;23.594;2023-02-15T12:28:05;96522.53;;;34.38;11.32
23172;BME280;11754;42.664;23.594;2023-02-15T12:30:42;96530.53;;;32.68;11.91
23172;BME280;11754;42.664;23.594;2023-02-15T12:33:20;96525.31;;;33.16;12.08
23172;BME280;11754;42.664;23.594;2023-02-15T12:35:58;96512.13;;;34.97;10.91
23172;BME280;11754;42.664;23.594;2023-02-15T12:38:26;96526.00;;;34.67;11.13
23172;BME280;11754;42.664;23.594;2023-02-15T12:41:02;96524.53;;;37.02;10.10
23172;BME280;11754;42.664;23.594;2023-02-15T12:43:38;96506.53;;;39.35;8.74
23172;BME280;11754;42.664;23.594;2023-02-15T12:46:24;96505.81;;;39.56;8.36
23172;BME280;11754;42.664;23.594;2023-02-15T12:49:19;96502.38;;;41.24;7.95
23172;BME280;11754;42.664;23.594;2023-02-15T12:51:53;96506.47;;;41.18;7.96
23172;BME280;11754;42.664;23.594;2023-02-15T12:56:47;96496.06;;;43.16;7.28
23172;BME280;11754;42.664;23.594;2023-02-15T12:59:14;96492.00;;;43.42;7.05
23172;BME280;11754;42.664;23.594;2023-02-15T13:01:41;96504.13;;;41.95;7.25
23172;BME280;11754;42.664;23.594;2023-02-15T13:04:24;96504.56;;;36.61;9.48
23172;BME280;11754;42.664;23.594;2023-02-15T13:06:52;96510.00;;;34.56;10.73
23172;BME280;11754;42.664;23.594;2023-02-15T13:09:26;96514.47;;;31.66;12.38
23172;BME280;11754;42.664;23.594;2023-02-15T13:12:11;96501.94;;;31.04;13.01
23172;BME280;11754;42.664;23.594;2023-02-15T13:14:43;96493.41;;;33.41;11.78
23172;BME280;11754;42.664;23.594;2023-02-15T13:17:09;96496.50;;;31.09;12.33
23172;BME280;11754;42.664;23.594;2023-02-15T13:19:48;96502.06;;;28.55;14.27
23172;BME280;11754;42.664;23.594;2023-02-15T13:22:19;96502.50;;;29.28;13.90
23172;BME280;11754;42.664;23.594;2023-02-15T13:24:48;96497.50;;;29.52;13.72
23172;BME280;11754;42.664;23.594;2023-02-15T13:27:16;96474.09;;;30.71;13.08
23172;BME280;11754;42.664;23.594;2023-02-15T13:29:46;96489.97;;;31.30;12.74
23172;BME280;11754;42.664;23.594;2023-02-15T13:35:18;96497.03;;;34.61;10.88
23172;BME280;11754;42.664;23.594;2023-02-15T13:38:06;96489.97;;;35.45;10.42
23172;BME280;11754;42.664;23.594;2023-02-15T13:40:37;96491.44;;;36.44;10.05
23172;BME280;11754;42.664;23.594;2023-02-15T13:51:13;96492.50;;;35.74;10.02
23172;BME280;11754;42.664;23.594;2023-02-15T13:53:58;96487.78;;;36.21;9.90
23172;BME280;11754;42.664;23.594;2023-02-15T13:59:38;96498.72;;;37.57;8.83
23172;BME280;11754;42.664;23.594;2023-02-15T14:13:04;96519.19;;;33.64;11.20
23172;BME280;11754;42.664;23.594;2023-02-15T14:16:00;96516.09;;;30.80;12.61
23172;BME280;11754;42.664;23.594;2023-02-15T14:18:46;96516.66;;;31.74;12.47
23172;BME280;11754;42.664;23.594;2023-02-15T14:26:38;96526.25;;;32.52;12.08
23172;BME280;11754;42.664;23.594;2023-02-15T14:31:42;96521.66;;;33.65;11.40
23172;BME280;11754;42.664;23.594;2023-02-15T14:34:22;96527.44;;;33.24;11.60
23172;BME280;11754;42.664;23.594;2023-02-15T14:36:50;96531.75;;;32.42;12.25
23172;BME280;11754;42.664;23.594;2023-02-15T14:39:31;96530.09;;;32.51;11.92
23172;BME280;11754;42.664;23.594;2023-02-15T14:42:41;96532.16;;;32.04;12.08
23172;BME280;11754;42.664;23.594;2023-02-15T14:45:18;96525.97;;;31.43;12.66
23172;BME280;11754;42.664;23.594;2023-02-15T14:48:09;96532.06;;;30.61;13.08
23172;BME280;11754;42.664;23.594;2023-02-15T14:50:39;96530.44;;;30.03;13.47
23172;BME280;11754;42.664;23.594;2023-02-15T14:53:34;96537.13;;;29.80;13.85
23172;BME280;11754;42.664;23.594;2023-02-15T14:58:37;96528.38;;;28.81;14.44
23172;BME280;11754;42.664;23.594;2023-02-15T15:01:05;96533.97;;;28.42;14.69
23172;BME280;11754;42.664;23.594;2023-02-15T15:03:32;96525.38;;;28.07;14.94
23172;BME280;11754;42.664;23.594;2023-02-15T15:05:59;96525.78;;;27.60;15.14
23172;BME280;11754;42.664;23.594;2023-02-15T15:08:38;96535.63;;;27.32;15.70
23172;BME280;11754;42.664;23.594;2023-02-15T15:13:59;96540.88;;;24.53;17.76
23172;BME280;11754;42.664;23.594;2023-02-15T15:19:02;96551.22;;;21.86;20.19
23172;BME280;11754;42.664;23.594;2023-02-15T15:41:26;96587.53;;;13.73;30.53
23172;BME280;11754;42.664;23.594;2023-02-15T15:44:31;96580.63;;;12.84;32.26
23172;BME280;11754;42.664;23.594;2023-02-15T15:47:20;96581.78;;;12.10;33.94
23172;BME280;11754;42.664;23.594;2023-02-15T15:49:49;96598.25;;;11.66;34.62
23172;BME280;11754;42.664;23.594;2023-02-15T15:52:21;96598.63;;;11.24;35.17
23172;BME280;11754;42.664;23.594;2023-02-15T15:54:50;96586.09;;;10.79;36.41